createdAt,value
2019-04-01T08:10:50.515Z,1010.61
2019-04-01T08:11:50.430Z,1010.61
2019-04-01T08:12:50.384Z,1010.55
2019-04-01T08:13:50.312Z,1010.58
2019-04-01T08:14:50.260Z,1010.54
2019-04-01T08:15:50.179Z,1010.64
2019-04-01T08:16:50.118Z,1010.58
2019-04-01T08:17:50.066Z,1010.53
2019-04-01T08:18:49.977Z,1010.62
2019-04-01T08:19:49.902Z,1010.57
2019-04-01T08:20:49.831Z,1010.54
2019-04-01T08:21:59.758Z,1010.52
2019-04-01T08:22:49.676Z,1010.56
2019-04-01T08:23:49.581Z,1010.51
2019-04-01T08:24:49.500Z,1010.51
2019-04-01T08:25:49.420Z,1010.55
2019-04-01T08:26:49.346Z,1010.55
2019-04-01T08:27:49.259Z,1010.53
2019-04-01T08:28:49.163Z,1010.50
2019-04-01T08:29:49.087Z,1010.53
2019-04-01T08:30:48.991Z,1010.53
2019-04-01T08:31:48.924Z,1010.54
2019-04-01T08:32:58.956Z,1010.52
2019-04-01T08:33:50.346Z,1010.52
2019-04-01T08:34:48.636Z,1010.58
2019-04-01T08:35:48.555Z,1010.56
2019-04-01T08:36:48.450Z,1010.56
2019-04-01T08:37:48.380Z,1010.53
2019-04-01T08:38:48.263Z,1010.56
2019-04-01T08:39:48.254Z,1010.58
2019-04-01T08:40:48.069Z,1010.62
2019-04-01T08:41:47.966Z,1010.59
2019-04-01T08:42:49.104Z,1010.55
2019-04-01T08:43:57.786Z,1010.51
2019-04-01T08:44:47.679Z,1010.56
2019-04-01T08:45:47.583Z,1010.56
2019-04-01T08:46:47.486Z,1010.55
2019-04-01T08:47:47.392Z,1010.50
2019-04-01T08:48:47.302Z,1010.55
2019-04-01T08:49:47.199Z,1010.50
2019-04-01T08:50:47.101Z,1010.48
2019-04-01T08:51:47.001Z,1010.56
2019-04-01T08:52:46.915Z,1010.49
2019-04-01T08:53:46.815Z,1010.49
2019-04-01T08:54:56.715Z,1010.53
2019-04-01T08:55:46.607Z,1010.49
2019-04-01T08:56:46.510Z,1010.49
2019-04-01T08:57:46.420Z,1010.48
2019-04-01T08:58:46.326Z,1010.47
2019-04-01T08:59:46.225Z,1010.45
2019-04-01T09:00:46.195Z,1010.41
2019-04-01T09:01:46.048Z,1010.45
2019-04-01T09:02:45.944Z,1010.42
2019-04-01T09:03:45.841Z,1010.49
2019-04-01T09:04:45.755Z,1010.50
2019-04-01T09:05:55.773Z,1010.41
2019-04-01T09:06:45.568Z,1010.43
2019-04-01T09:07:45.463Z,1010.44
2019-04-01T09:08:45.340Z,1010.41
2019-04-01T09:09:45.237Z,1010.41
2019-04-01T09:10:45.142Z,1010.31
2019-04-01T09:11:45.043Z,1010.39
2019-04-01T09:12:44.959Z,1010.31
2019-04-01T09:13:44.862Z,1010.30
2019-04-01T09:14:44.769Z,1010.34
2019-04-01T09:15:44.675Z,1010.33
2019-04-01T09:16:54.608Z,1010.30
2019-04-01T09:17:44.504Z,1010.30
2019-04-01T09:18:44.401Z,1010.32
2019-04-01T09:19:44.303Z,1010.35
2019-04-01T09:20:44.216Z,1010.32
2019-04-01T09:21:44.127Z,1010.28
2019-04-01T09:22:44.020Z,1010.29
2019-04-01T09:23:43.941Z,1010.23
2019-04-01T09:24:43.856Z,1010.15
2019-04-01T09:25:43.726Z,1010.14
2019-04-01T09:26:43.630Z,1010.28
2019-04-01T09:27:53.545Z,1010.29
2019-04-01T09:28:43.447Z,1010.15
2019-04-01T09:29:43.339Z,1010.27
2019-04-01T09:30:43.250Z,1010.13
2019-04-01T09:31:43.140Z,1010.17
2019-04-01T09:32:43.054Z,1010.30
2019-04-01T09:33:42.967Z,1010.21
2019-04-01T09:34:42.878Z,1010.28
2019-04-01T09:35:42.788Z,1010.26
2019-04-01T09:36:42.661Z,1010.23
2019-04-01T09:37:42.578Z,1010.21
2019-04-01T09:38:42.485Z,1010.24
2019-04-01T09:39:42.367Z,1010.25
2019-04-01T09:40:42.285Z,1010.27
2019-04-01T09:41:42.174Z,1010.18
2019-04-01T09:42:42.060Z,1010.17
2019-04-01T09:43:41.968Z,1010.18
2019-04-01T09:44:41.857Z,1010.16
2019-04-01T09:45:41.755Z,1010.09
2019-04-01T09:46:51.667Z,1010.06
2019-04-01T09:47:41.562Z,1010.06
2019-04-01T09:48:41.472Z,1010.01
2019-04-01T09:49:41.382Z,1009.98
2019-04-01T09:50:41.279Z,1010.04
2019-04-01T09:51:48.444Z,1010.04
2019-04-01T09:52:42.088Z,1009.99
2019-04-01T09:53:41.006Z,1010.02
2019-04-01T09:54:40.911Z,1009.93
2019-04-01T09:55:40.804Z,1009.92
2019-04-01T09:56:40.707Z,1009.97
2019-04-01T09:57:50.622Z,1009.93
2019-04-01T09:58:40.524Z,1009.90
2019-04-01T09:59:40.445Z,1009.89
2019-04-01T10:00:40.344Z,1009.88
2019-04-01T10:01:40.239Z,1009.89
2019-04-01T10:02:40.149Z,1009.85
2019-04-01T10:03:40.060Z,1009.83
2019-04-01T10:04:39.965Z,1009.86
2019-04-01T10:05:39.864Z,1009.79
2019-04-01T10:06:39.763Z,1009.76
2019-04-01T10:07:39.832Z,1009.84
2019-04-01T10:08:49.585Z,1009.79
2019-04-01T10:09:39.490Z,1009.76
2019-04-01T10:10:39.387Z,1009.82
2019-04-01T10:11:39.286Z,1009.75
2019-04-01T10:12:39.186Z,1009.80
2019-04-01T10:13:39.086Z,1009.75
2019-04-01T10:14:39.008Z,1009.80
2019-04-01T10:15:38.897Z,1009.73
2019-04-01T10:16:38.802Z,1009.69
2019-04-01T10:17:38.696Z,1009.68
2019-04-01T10:18:38.599Z,1009.66
2019-04-01T10:19:48.521Z,1009.65
2019-04-01T10:20:38.401Z,1009.70
2019-04-01T10:21:38.310Z,1009.63
2019-04-01T10:22:38.207Z,1009.67
2019-04-01T10:23:38.099Z,1009.67
2019-04-01T10:24:37.996Z,1009.67
2019-04-01T10:25:37.903Z,1009.68
2019-04-01T10:26:37.797Z,1009.65
2019-04-01T10:27:37.711Z,1009.63
2019-04-01T10:28:37.601Z,1009.61
2019-04-01T10:29:37.508Z,1009.61
2019-04-01T10:30:47.429Z,1009.58
2019-04-01T10:31:37.331Z,1009.64
2019-04-01T10:32:37.214Z,1009.62
2019-04-01T10:33:37.124Z,1009.53
2019-04-01T10:34:37.041Z,1009.61
2019-04-01T10:35:36.938Z,1009.61
2019-04-01T10:36:36.831Z,1009.63
2019-04-01T10:37:36.735Z,1009.55
2019-04-01T10:38:36.646Z,1009.56
2019-04-01T10:39:36.537Z,1009.46
2019-04-01T10:40:36.445Z,1009.42
2019-04-01T10:41:46.344Z,1009.46
2019-04-01T10:42:36.243Z,1009.43
2019-04-01T10:43:36.138Z,1009.47
2019-04-01T10:44:36.052Z,1009.45
2019-04-01T10:45:35.951Z,1009.44
2019-04-01T10:46:35.911Z,1009.42
2019-04-01T10:47:35.846Z,1009.45
2019-04-01T10:48:35.690Z,1009.47
2019-04-01T10:49:35.637Z,1009.46
2019-04-01T10:50:35.516Z,1009.45
2019-04-01T10:51:35.391Z,1009.49
2019-04-01T10:52:45.365Z,1009.46
2019-04-01T10:53:35.262Z,1009.43
2019-04-01T10:54:35.163Z,1009.37
2019-04-01T10:55:35.126Z,1009.41
2019-04-01T10:56:36.051Z,1009.48
2019-04-01T10:57:34.829Z,1009.40
2019-04-01T10:58:34.718Z,1009.38
2019-04-01T10:59:34.646Z,1009.31
2019-04-01T11:00:34.536Z,1009.30
2019-04-01T11:01:34.448Z,1009.27
2019-04-01T11:02:34.322Z,1009.27
2019-04-01T11:03:44.253Z,1009.24
2019-04-01T11:04:34.132Z,1009.26
2019-04-01T11:05:34.105Z,1009.17
2019-04-01T11:06:33.958Z,1009.24
2019-04-01T11:07:33.869Z,1009.20
2019-04-01T11:08:33.886Z,1009.16
2019-04-01T11:09:38.508Z,1009.14
2019-04-01T11:10:34.519Z,1009.19
2019-04-01T11:11:33.416Z,1009.10
2019-04-01T11:12:33.318Z,1009.12
2019-04-01T11:13:33.215Z,1009.05
2019-04-01T11:14:43.150Z,1009.04
2019-04-01T11:15:33.019Z,1009.03
2019-04-01T11:16:32.906Z,1009.04
2019-04-01T11:17:32.817Z,1008.94
2019-04-01T11:18:32.707Z,1008.97
2019-04-01T11:19:32.621Z,1008.99
2019-04-01T11:20:32.543Z,1008.97
2019-04-01T11:21:33.776Z,1009.00
2019-04-01T11:22:32.354Z,1008.96
2019-04-01T11:23:33.714Z,1008.98
2019-04-01T11:24:32.158Z,1008.93
2019-04-01T11:25:42.094Z,1008.90
2019-04-01T11:26:31.982Z,1008.97
2019-04-01T11:27:31.894Z,1008.95
2019-04-01T11:28:31.810Z,1008.97
2019-04-01T11:29:31.717Z,1008.85
2019-04-01T11:30:31.668Z,1008.89
2019-04-01T11:31:31.566Z,1008.90
2019-04-01T11:32:31.484Z,1008.87
2019-04-01T11:33:31.364Z,1008.84
2019-04-01T11:34:31.279Z,1008.83
2019-04-01T11:35:31.183Z,1008.80
2019-04-01T11:36:41.259Z,1008.79
2019-04-01T11:37:31.033Z,1008.76
2019-04-01T11:38:30.915Z,1008.83
2019-04-01T11:39:30.826Z,1008.70
2019-04-01T11:40:30.799Z,1008.71
2019-04-01T11:41:30.632Z,1008.61
2019-04-01T11:42:30.653Z,1008.65
2019-04-01T11:43:30.462Z,1008.61
2019-04-01T11:44:30.358Z,1008.64
2019-04-01T11:45:30.277Z,1008.60
2019-04-01T11:46:30.225Z,1008.55
2019-04-01T11:47:40.094Z,1008.52
2019-04-01T11:48:30.025Z,1008.50
2019-04-01T11:49:29.904Z,1008.49
2019-04-01T11:50:29.803Z,1008.44
2019-04-01T11:51:32.946Z,1008.47
2019-04-01T11:52:29.643Z,1008.44
2019-04-01T11:53:29.516Z,1008.49
2019-04-01T11:54:29.426Z,1008.47
2019-04-01T11:55:29.328Z,1008.43
2019-04-01T11:56:29.261Z,1008.35
2019-04-01T11:57:29.147Z,1008.30
2019-04-01T11:58:39.077Z,1008.36
2019-04-01T11:59:28.977Z,1008.32
2019-04-01T12:00:28.896Z,1008.28
2019-04-01T12:01:28.814Z,1008.30
2019-04-01T12:02:28.722Z,1008.18
2019-04-01T12:03:28.631Z,1008.27
2019-04-01T12:04:28.543Z,1008.18
2019-04-01T12:05:28.460Z,1008.12
2019-04-01T12:06:28.375Z,1008.14
2019-04-01T12:07:28.271Z,1008.14
2019-04-01T12:08:28.186Z,1008.15
2019-04-01T12:09:38.119Z,1008.05
2019-04-01T12:10:28.022Z,1008.10
2019-04-01T12:11:27.932Z,1008.04
2019-04-01T12:12:27.849Z,1007.98
2019-04-01T12:13:28.864Z,1007.98
2019-04-01T12:14:27.664Z,1007.94
2019-04-01T12:15:27.570Z,1007.97
2019-04-01T12:16:27.497Z,1007.93
2019-04-01T12:17:27.398Z,1007.94
2019-04-01T12:18:27.301Z,1007.93
2019-04-01T12:19:27.218Z,1007.89
2019-04-01T12:20:38.157Z,1007.85
2019-04-01T12:21:27.048Z,1007.78
2019-04-01T12:22:26.952Z,1007.79
2019-04-01T12:23:26.863Z,1007.81
2019-04-01T12:24:26.775Z,1007.80
2019-04-01T12:25:26.679Z,1007.75
2019-04-01T12:26:26.603Z,1007.77
2019-04-01T12:27:26.519Z,1007.68
2019-04-01T12:28:26.424Z,1007.67
2019-04-01T12:29:26.338Z,1007.69
2019-04-01T12:30:26.245Z,1007.69
2019-04-01T12:31:36.161Z,1007.64
2019-04-01T12:32:26.062Z,1007.57
2019-04-01T12:33:26.522Z,1007.60
2019-04-01T12:34:25.872Z,1007.61
2019-04-01T12:35:25.786Z,1007.57
2019-04-01T12:36:25.701Z,1007.60
2019-04-01T12:37:25.594Z,1007.59
2019-04-01T12:38:25.499Z,1007.52
2019-04-01T12:39:25.402Z,1007.55
2019-04-01T12:40:25.315Z,1007.48
2019-04-01T12:41:25.220Z,1007.47
2019-04-01T12:42:35.162Z,1007.46
2019-04-01T12:43:25.038Z,1007.50
2019-04-01T12:44:24.952Z,1007.44
2019-04-01T12:45:24.845Z,1007.45
2019-04-01T12:46:24.755Z,1007.43
2019-04-01T12:47:24.667Z,1007.37
2019-04-01T12:48:25.530Z,1007.41
2019-04-01T12:49:24.482Z,1007.37
2019-04-01T12:50:24.368Z,1007.26
2019-04-01T12:51:24.269Z,1007.34
2019-04-01T12:52:24.183Z,1007.22
2019-04-01T12:53:34.096Z,1007.27
2019-04-01T12:54:23.983Z,1007.25
2019-04-01T12:55:23.963Z,1007.27
2019-04-01T12:56:23.786Z,1007.28
2019-04-01T12:57:23.677Z,1007.23
2019-04-01T12:58:25.296Z,1007.24
2019-04-01T12:59:23.631Z,1007.14
2019-04-01T13:00:23.387Z,1007.14
2019-04-01T13:01:23.298Z,1007.09
2019-04-01T13:02:23.204Z,1007.13
2019-04-01T13:03:23.116Z,1007.11
2019-04-01T13:04:35.924Z,1007.12
2019-04-01T13:05:23.119Z,1007.02
2019-04-01T13:06:22.829Z,1007.05
2019-04-01T13:07:22.741Z,1007.11
2019-04-01T13:08:23.424Z,1007.10
2019-04-01T13:09:22.576Z,1007.06
2019-04-01T13:10:22.454Z,1007.03
2019-04-01T13:11:22.361Z,1007.00
2019-04-01T13:12:22.267Z,1006.97
2019-04-01T13:13:22.843Z,1006.94
2019-04-01T13:14:22.082Z,1006.91
2019-04-01T13:15:32.000Z,1006.89
2019-04-01T13:16:21.898Z,1006.86
2019-04-01T13:17:21.803Z,1006.83
2019-04-01T13:18:21.712Z,1006.80
2019-04-01T13:19:21.628Z,1006.75
2019-04-01T13:20:21.524Z,1006.78
2019-04-01T13:21:21.438Z,1006.75
2019-04-01T13:22:21.340Z,1006.70
2019-04-01T13:23:21.253Z,1006.76
2019-04-01T13:24:21.157Z,1006.79
2019-04-01T13:25:21.065Z,1006.76
2019-04-01T13:26:31.101Z,1006.74
2019-04-01T13:27:20.889Z,1006.81
2019-04-01T13:28:20.798Z,1006.72
2019-04-01T13:29:20.696Z,1006.75
2019-04-01T13:30:23.975Z,1006.75
2019-04-01T13:31:20.512Z,1006.75
2019-04-01T13:32:20.582Z,1006.69
2019-04-01T13:33:20.341Z,1006.64
2019-04-01T13:34:20.449Z,1006.63
2019-04-01T13:35:20.168Z,1006.64
2019-04-01T13:36:21.018Z,1006.61
2019-04-01T13:37:29.982Z,1006.63
2019-04-01T13:38:19.889Z,1006.61
2019-04-01T13:39:19.802Z,1006.56
2019-04-01T13:40:19.785Z,1006.62
2019-04-01T13:41:19.622Z,1006.59
2019-04-01T13:42:19.522Z,1006.56
2019-04-01T13:43:19.443Z,1006.53
2019-04-01T13:44:19.361Z,1006.51
2019-04-01T13:45:19.271Z,1006.51
2019-04-01T13:46:19.490Z,1006.42
2019-04-01T13:47:19.682Z,1006.48
2019-04-01T13:48:29.028Z,1006.40
2019-04-01T13:49:18.930Z,1006.43
2019-04-01T13:50:18.857Z,1006.42
2019-04-01T13:51:18.761Z,1006.30
2019-04-01T13:52:18.682Z,1006.43
2019-04-01T13:53:18.601Z,1006.39
2019-04-01T13:54:18.517Z,1006.42
2019-04-01T13:55:18.428Z,1006.40
2019-04-01T13:56:18.337Z,1006.39
2019-04-01T13:57:18.266Z,1006.40
2019-04-01T13:58:18.180Z,1006.35
2019-04-01T13:59:28.081Z,1006.39
2019-04-01T14:00:17.999Z,1006.33
2019-04-01T14:01:17.898Z,1006.33
2019-04-01T14:02:17.821Z,1006.27
2019-04-01T14:03:17.734Z,1006.24
2019-04-01T14:04:17.621Z,1006.23
2019-04-01T14:05:17.534Z,1006.22
2019-04-01T14:06:17.440Z,1006.22
2019-04-01T14:07:17.357Z,1006.20
2019-04-01T14:08:17.262Z,1006.23
2019-04-01T14:09:17.166Z,1006.22
2019-04-01T14:10:27.089Z,1006.17
2019-04-01T14:11:16.993Z,1006.21
2019-04-01T14:12:16.902Z,1006.22
2019-04-01T14:13:16.848Z,1006.18
2019-04-01T14:14:16.739Z,1006.13
2019-04-01T14:15:16.656Z,1006.06
2019-04-01T14:16:16.548Z,1006.16
2019-04-01T14:17:16.464Z,1006.07
2019-04-01T14:18:16.382Z,1006.07
2019-04-01T14:19:16.273Z,1006.04
2019-04-01T14:20:16.261Z,1006.04
2019-04-01T14:21:26.109Z,1006.09
2019-04-01T14:22:16.006Z,1006.12
2019-04-01T14:23:15.909Z,1006.04
2019-04-01T14:24:16.040Z,1006.10
2019-04-01T14:25:15.727Z,1006.08
2019-04-01T14:26:15.644Z,1005.97
2019-04-01T14:27:15.561Z,1005.99
2019-04-01T14:28:15.470Z,1005.93
2019-04-01T14:29:16.677Z,1005.91
2019-04-01T14:30:15.299Z,1005.94
2019-04-01T14:31:15.203Z,1005.95
2019-04-01T14:32:25.116Z,1005.95
2019-04-01T14:33:15.022Z,1005.92
2019-04-01T14:34:22.813Z,1005.95
2019-04-01T14:35:15.845Z,1005.93
2019-04-01T14:36:14.762Z,1005.88
2019-04-01T14:37:14.672Z,1005.94
2019-04-01T14:38:14.589Z,1005.88
2019-04-01T14:39:14.512Z,1005.83
2019-04-01T14:40:14.405Z,1005.88
2019-04-01T14:41:14.317Z,1005.84
2019-04-01T14:42:14.225Z,1005.85
2019-04-01T14:43:24.148Z,1005.87
2019-04-01T14:44:14.064Z,1005.84
2019-04-01T14:45:13.969Z,1005.81
2019-04-01T14:46:13.882Z,1005.87
2019-04-01T14:47:13.811Z,1005.81
2019-04-01T14:48:13.707Z,1005.82
2019-04-01T14:49:13.668Z,1005.91
2019-04-01T14:50:13.539Z,1005.87
2019-04-01T14:51:13.456Z,1005.83
2019-04-01T14:52:13.375Z,1005.85
2019-04-01T14:53:13.291Z,1005.78
2019-04-01T14:54:23.228Z,1005.83
2019-04-01T14:55:13.150Z,1005.82
2019-04-01T14:56:13.051Z,1005.80
2019-04-01T14:57:12.970Z,1005.72
2019-04-01T14:58:12.880Z,1005.74
2019-04-01T14:59:12.803Z,1005.65
2019-04-01T15:00:12.704Z,1005.72
2019-04-01T15:01:12.615Z,1005.67
2019-04-01T15:02:12.527Z,1005.69
2019-04-01T15:03:12.437Z,1005.66
2019-04-01T15:04:12.359Z,1005.72
2019-04-01T15:05:22.272Z,1005.69
2019-04-01T15:06:12.179Z,1005.64
2019-04-01T15:07:12.128Z,1005.66
2019-04-01T15:08:11.998Z,1005.66
2019-04-01T15:09:11.918Z,1005.70
2019-04-01T15:10:11.820Z,1005.67
2019-04-01T15:11:12.447Z,1005.68
2019-04-01T15:12:11.626Z,1005.68
2019-04-01T15:13:11.545Z,1005.69
2019-04-01T15:14:11.469Z,1005.60
2019-04-01T15:15:11.361Z,1005.63
2019-04-01T15:16:21.283Z,1005.67
2019-04-01T15:17:11.219Z,1005.65
2019-04-01T15:18:11.082Z,1005.57
2019-04-01T15:19:12.867Z,1005.50
2019-04-01T15:20:10.914Z,1005.48
2019-04-01T15:21:11.819Z,1005.59
2019-04-01T15:22:10.702Z,1005.57
2019-04-01T15:23:10.645Z,1005.56
2019-04-01T15:24:10.525Z,1005.50
2019-04-01T15:25:10.449Z,1005.55
2019-04-01T15:26:10.344Z,1005.51
2019-04-01T15:27:22.512Z,1005.51
2019-04-01T15:28:10.169Z,1005.48
2019-04-01T15:29:10.063Z,1005.48
2019-04-01T15:30:13.730Z,1005.42
2019-04-01T15:31:09.877Z,1005.47
2019-04-01T15:32:09.786Z,1005.48
2019-04-01T15:33:09.720Z,1005.43
2019-04-01T15:34:09.642Z,1005.45
2019-04-01T15:35:09.518Z,1005.45
2019-04-01T15:36:09.413Z,1005.39
2019-04-01T15:37:09.321Z,1005.31
2019-04-01T15:38:19.234Z,1005.28
2019-04-01T15:39:09.156Z,1005.39
2019-04-01T15:40:09.061Z,1005.41
2019-04-01T15:41:09.001Z,1005.35
2019-04-01T15:42:08.887Z,1005.37
2019-04-01T15:43:08.775Z,1005.38
2019-04-01T15:44:09.285Z,1005.39
2019-04-01T15:45:08.633Z,1005.31
2019-04-01T15:46:08.510Z,1005.36
2019-04-01T15:47:08.908Z,1005.34
2019-04-01T15:48:08.323Z,1005.29
2019-04-01T15:49:11.256Z,1005.26
2019-04-01T15:50:09.398Z,1005.25
2019-04-01T15:51:08.207Z,1005.29
2019-04-01T15:52:07.956Z,1005.28
2019-04-01T15:53:07.835Z,1005.28
